This is the latest recevied weather packets stored in our database for station/object S56WDN-10. If no packets are shown the sender has not sent any weather packets the latest 10 day(s).
| Time | Temp. | Humidity | Pressure | Rain* | Wind** | Luminosity | Snow |
|---|---|---|---|---|---|---|---|
| 1777863422 | 7.22° C | 81% | 1017.7 hPa | 0 mm | - | - | - |
| 1777862822 | 7.78° C | 81% | 1017.7 hPa | 0 mm | - | - | - |
| 1777845122 | 11.11° C | 71% | 1017.2 hPa | 0 mm | - | - | - |
| 1777844822 | 11.11° C | 71% | 1017.2 hPa | 0 mm | - | - | - |
| 1777844222 | 11.67° C | 71% | 1017.4 hPa | 0 mm | - | - | - |
| 1777843922 | 11.67° C | 70% | 1017.2 hPa | 0 mm | - | - | - |
| 1777843322 | 11.67° C | 70% | 1017.2 hPa | 0 mm | - | - | - |
| 1777843023 | 12.22° C | 69% | 1017.2 hPa | 0 mm | - | - | - |
| 1777842722 | 12.22° C | 69% | 1017.3 hPa | 0 mm | - | - | - |
| 1777842422 | 12.22° C | 69% | 1017.3 hPa | 0 mm | - | - | - |
| 1777842122 | 12.22° C | 69% | 1017.3 hPa | 0 mm | - | - | - |
| 1777840622 | 12.78° C | 66% | 1017.2 hPa | 0 mm | - | - | - |
| 1777840323 | 13.33° C | 66% | 1017.2 hPa | 0 mm | - | - | - |
| 1777840023 | 13.33° C | 66% | 1017.2 hPa | 0 mm | - | - | - |
| 1777839723 | 13.33° C | 65% | 1017.2 hPa | 0 mm | - | - | - |
| 1777839423 | 13.33° C | 65% | 1017.1 hPa | 0 mm | - | - | - |
| 1777838823 | 13.89° C | 63% | 1017.1 hPa | 0 mm | - | - | - |
| 1777838523 | 13.89° C | 63% | 1017 hPa | 0 mm | - | - | - |
| 1777838223 | 13.89° C | 63% | 1017 hPa | 0 mm | - | - | - |
| 1777837923 | 14.44° C | 63% | 1017.1 hPa | 0 mm | - | - | - |
| 1777837623 | 14.44° C | 62% | 1017 hPa | 0 mm | - | - | - |
| 1777837023 | 15° C | 61% | 1017.1 hPa | 0 mm | - | - | - |
| 1777836723 | 15° C | 59% | 1017 hPa | 0 mm | - | - | - |
| 1777836423 | 15° C | 59% | 1017.1 hPa | 0 mm | - | - | - |
| 1777835823 | 16.11° C | 58% | 1017 hPa | 0 mm | - | - | - |
* Rain latest hour (hover to see other rain measurements)
** Current wind speed in m/s (hover to see current wind gust speed)